Governor's Harbour, The Bahamas
Current Conditions -  °F | °C
As of 1:00 PM on Saturday 25 Oct 2014 (Local Time) from MYNN Reporting Station
Broken Clouds Broken Clouds  
Wind Chill: 28°   Ceiling: 8000
Heat Index: 29°   Visibility: 6mi
Dew Point: 19°   Wind: 14mph
Humidity: 58%   Direction: 20°NNE
Pressure: 29.86"   Gusts: NA
Location:  25.17°N, 76.23°W
Report Text: MYNN 251700Z 02012KT 9999 FEW016 BKN080 28/19 A2986
Loading
Personal Weather Stations






























Interactive Weather Map
Tropical Storm Tracking
New forecast layout! Learn more

10-Day Weather Forecast

Advertisements
Track Severe Weather on mobile